createdAt,value
2022-08-10T00:00:58.657Z,100813.22
2022-08-10T00:03:26.496Z,100816.94
2022-08-10T00:05:56.501Z,100818.72
2022-08-10T00:08:25.158Z,100818.66
2022-08-10T00:10:53.378Z,100825.13
2022-08-10T00:13:21.380Z,100825.13
2022-08-10T00:15:55.243Z,100801.94
2022-08-10T00:18:31.598Z,100787.72
2022-08-10T00:21:04.870Z,100812.03
2022-08-10T00:23:32.813Z,100805.84
2022-08-10T00:26:00.736Z,100805.09
2022-08-10T00:28:28.625Z,100803.38
2022-08-10T00:30:56.550Z,100801.69
2022-08-10T00:33:25.808Z,100800.88
2022-08-10T00:35:54.740Z,100800.00
2022-08-10T00:38:22.653Z,100795.59
2022-08-10T00:40:50.513Z,100798.50
2022-08-10T00:43:23.500Z,100797.75
2022-08-10T00:45:58.823Z,100797.06
2022-08-10T00:48:30.306Z,100801.56
2022-08-10T00:50:58.962Z,100790.09
2022-08-10T00:53:27.158Z,100795.41
2022-08-10T00:57:15.246Z,100765.84
2022-08-10T00:58:43.020Z,100793.69
2022-08-10T01:01:10.980Z,100790.09
2022-08-10T01:04:39.613Z,100797.28
2022-08-10T01:06:52.728Z,100793.88
2022-08-10T01:09:22.226Z,100763.41
2022-08-10T01:12:39.788Z,100787.78
2022-08-10T01:14:43.728Z,100776.47
2022-08-10T01:17:13.171Z,100786.44
2022-08-10T01:19:50.950Z,100758.78
2022-08-10T01:22:39.883Z,100785.25
2022-08-10T01:26:10.402Z,100781.56
2022-08-10T01:28:33.148Z,100788.06
2022-08-10T01:31:02.604Z,100770.81
2022-08-10T01:33:58.763Z,100771.66
2022-08-10T01:36:32.053Z,100780.56
2022-08-10T01:39:01.279Z,100774.50
2022-08-10T01:41:45.695Z,100767.75
2022-08-10T01:44:15.759Z,100775.75
2022-08-10T01:46:48.569Z,100770.69
2022-08-10T01:49:18.863Z,100759.69
2022-08-10T01:51:47.865Z,100771.78
2022-08-10T01:54:17.021Z,100776.38
2022-08-10T01:56:46.370Z,100772.91
2022-08-10T01:59:17.287Z,100766.13
2022-08-10T02:01:49.223Z,100772.22
2022-08-10T02:04:18.078Z,100767.16
2022-08-10T02:06:46.994Z,100748.00
2022-08-10T02:09:16.826Z,100776.84
2022-08-10T02:12:05.151Z,100792.00
2022-08-10T02:14:34.679Z,100772.59
2022-08-10T02:17:05.451Z,100766.50
2022-08-10T02:19:33.488Z,100723.09
2022-08-10T02:22:36.770Z,100768.28
2022-08-10T02:24:49.128Z,100775.44
2022-08-10T02:27:17.013Z,100777.38
2022-08-10T02:29:44.850Z,100774.81
2022-08-10T02:32:28.169Z,100777.59
2022-08-10T02:35:08.655Z,100787.66
2022-08-10T02:37:48.074Z,100786.56
2022-08-10T02:45:14.468Z,100788.47
2022-08-10T02:45:17.969Z,100788.53
2022-08-10T02:45:57.970Z,100769.47
2022-08-10T02:48:32.752Z,100783.63
2022-08-10T02:51:02.952Z,100778.47
2022-08-10T02:53:55.527Z,100785.34
2022-08-10T02:56:22.826Z,100774.00
2022-08-10T02:58:54.537Z,100729.78
2022-08-10T03:01:24.456Z,100771.41
2022-08-10T03:03:59.195Z,100768.84
2022-08-10T03:06:28.238Z,100767.97
2022-08-10T03:08:56.111Z,100767.97
2022-08-10T03:12:34.892Z,100774.19
2022-08-10T03:14:13.111Z,100709.69
2022-08-10T03:16:40.999Z,100765.47
2022-08-10T03:20:36.033Z,100765.53
2022-08-10T03:21:58.212Z,100756.91
2022-08-10T03:24:32.691Z,100765.59
2022-08-10T03:27:01.446Z,100762.06
2022-08-10T03:29:29.621Z,100766.56
2022-08-10T03:31:57.462Z,100750.81
2022-08-10T03:34:33.382Z,100765.78
2022-08-10T03:37:01.708Z,100766.50
2022-08-10T03:39:30.843Z,100769.16
2022-08-10T03:42:00.080Z,100760.53
2022-08-10T03:44:29.769Z,100750.22
2022-08-10T03:46:57.590Z,100764.16
2022-08-10T03:49:26.918Z,100761.69
2022-08-10T03:51:54.749Z,100767.03
2022-08-10T03:54:24.108Z,100747.94
2022-08-10T03:56:51.956Z,100759.28
2022-08-10T03:59:19.898Z,100761.00
2022-08-10T04:02:44.143Z,100750.75
2022-08-10T04:04:37.054Z,100758.75
2022-08-10T04:07:05.507Z,100771.16
2022-08-10T04:09:53.503Z,100738.44
2022-08-10T04:12:22.513Z,100772.22
2022-08-10T04:14:52.930Z,100773.16
2022-08-10T04:18:03.325Z,100772.41
2022-08-10T04:20:15.003Z,100772.72
2022-08-10T04:22:43.010Z,100775.34
2022-08-10T04:25:10.945Z,100733.66
2022-08-10T04:27:38.820Z,100769.25
2022-08-10T04:30:07.879Z,100774.56
2022-08-10T04:32:36.104Z,100778.13
2022-08-10T04:35:04.884Z,100591.28
2022-08-10T04:37:34.370Z,100725.03
2022-08-10T04:40:02.579Z,100487.41
2022-08-10T04:42:30.761Z,100492.53
2022-08-10T04:44:59.456Z,100632.19
2022-08-10T04:47:57.904Z,100887.88
2022-08-10T04:50:15.886Z,100560.78
2022-08-10T04:52:47.609Z,100859.53
2022-08-10T04:55:15.842Z,100776.97
2022-08-10T04:57:44.024Z,100356.56
2022-08-10T05:00:18.953Z,100809.72
2022-08-10T05:02:47.895Z,100712.31
2022-08-10T05:05:16.030Z,100528.94
2022-08-10T05:07:51.419Z,100575.63
2022-08-10T05:10:24.106Z,100547.50
2022-08-10T05:12:52.880Z,100621.56
2022-08-10T05:15:23.940Z,100508.13
2022-08-10T05:18:08.142Z,100360.56
2022-08-10T05:20:37.992Z,100692.41
2022-08-10T05:23:05.936Z,100672.34
2022-08-10T05:25:37.461Z,100675.75
2022-08-10T05:28:06.955Z,100873.78
2022-08-10T05:30:35.379Z,100696.06
2022-08-10T05:33:08.051Z,100807.72
2022-08-10T05:35:56.568Z,100581.56
2022-08-10T05:38:26.880Z,100738.22
2022-08-10T05:40:56.242Z,100774.38
2022-08-10T05:43:24.155Z,100649.72
2022-08-10T05:46:17.737Z,100596.03
2022-08-10T05:48:59.402Z,100704.25
2022-08-10T05:51:28.517Z,100671.75
2022-08-10T05:54:00.853Z,100695.19
2022-08-10T05:56:54.699Z,100784.56
2022-08-10T06:00:10.673Z,100517.97
2022-08-10T06:02:30.858Z,100542.41
2022-08-10T06:05:01.709Z,100811.81
2022-08-10T06:07:29.727Z,100429.84
2022-08-10T06:09:59.139Z,100639.69
2022-08-10T06:12:31.306Z,100686.91
2022-08-10T06:15:05.318Z,100582.34
2022-08-10T06:17:34.189Z,100842.19
2022-08-10T06:20:02.201Z,100817.97
2022-08-10T06:22:32.396Z,100692.28
2022-08-10T06:25:27.281Z,100817.66
2022-08-10T06:27:50.395Z,100614.78
2022-08-10T06:30:20.858Z,100608.84
2022-08-10T06:32:49.359Z,100781.66
2022-08-10T06:35:17.501Z,100854.47
2022-08-10T06:37:50.564Z,100587.06
2022-08-10T06:40:19.760Z,100565.91
2022-08-10T06:42:48.401Z,100748.94
2022-08-10T06:45:18.586Z,100820.09
2022-08-10T06:47:48.657Z,100628.72
2022-08-10T06:50:34.940Z,100689.97
2022-08-10T06:53:07.631Z,100635.47
2022-08-10T06:55:55.497Z,100727.41
2022-08-10T06:58:26.576Z,100661.31
2022-08-10T07:00:56.642Z,100616.41
2022-08-10T07:03:27.408Z,100621.59
2022-08-10T07:05:55.365Z,100697.16
2022-08-10T07:08:23.401Z,100792.34
2022-08-10T07:10:51.526Z,100711.53
2022-08-10T07:14:16.019Z,100775.69
2022-08-10T07:16:12.888Z,100603.84
2022-08-10T07:18:41.239Z,100527.53
2022-08-10T07:21:10.242Z,100610.63
2022-08-10T07:23:58.395Z,100782.16
2022-08-10T07:26:26.726Z,100652.84
2022-08-10T07:28:54.831Z,100711.22
2022-08-10T07:31:31.101Z,100897.75
2022-08-10T07:34:28.570Z,100685.72
2022-08-10T07:37:00.317Z,100789.59
2022-08-10T07:39:57.930Z,100823.00
2022-08-10T07:42:21.395Z,100531.25
2022-08-10T07:44:50.612Z,100760.75
2022-08-10T07:47:52.335Z,100841.88
2022-08-10T07:50:17.677Z,100821.41
2022-08-10T07:52:45.705Z,100707.19
2022-08-10T07:55:16.298Z,100829.22
2022-08-10T07:57:44.437Z,100659.06
2022-08-10T08:00:13.521Z,100747.22
2022-08-10T08:02:46.230Z,100513.03
2022-08-10T08:05:27.597Z,100538.91
2022-08-10T08:08:02.948Z,100667.50
2022-08-10T08:10:31.340Z,100659.81
2022-08-10T08:12:59.422Z,100722.31
2022-08-10T08:16:18.640Z,100709.63
2022-08-10T08:18:23.006Z,100569.91
2022-08-10T08:20:54.450Z,100848.56
2022-08-10T08:24:30.300Z,100687.53
2022-08-10T08:26:12.100Z,100567.44
2022-08-10T08:28:45.853Z,100799.66
2022-08-10T08:31:13.992Z,100727.03
2022-08-10T08:33:43.305Z,100716.31
2022-08-10T08:36:11.507Z,100592.53
2022-08-10T08:38:39.445Z,100823.31
2022-08-10T08:41:19.627Z,100580.09
2022-08-10T08:43:50.672Z,100728.31
2022-08-10T08:46:58.772Z,100768.72
2022-08-10T08:50:07.910Z,100672.44
2022-08-10T08:52:40.443Z,100797.75
2022-08-10T08:55:55.215Z,100813.56
2022-08-10T08:58:09.647Z,100560.50
2022-08-10T09:00:42.600Z,100720.59
2022-08-10T09:03:32.282Z,100669.31
2022-08-10T09:06:07.772Z,100729.06
2022-08-10T09:09:04.801Z,100715.91
2022-08-10T09:11:42.533Z,100807.78
2022-08-10T09:14:17.901Z,100580.47
2022-08-10T09:16:58.733Z,100637.19
2022-08-10T09:19:36.131Z,100487.88
2022-08-10T09:22:18.293Z,100785.34
2022-08-10T09:24:59.239Z,100651.44
2022-08-10T09:27:33.899Z,100770.56
2022-08-10T09:30:06.933Z,100781.59
2022-08-10T09:36:15.984Z,100516.44
2022-08-10T09:36:22.618Z,100499.44
2022-08-10T09:38:30.532Z,100571.41
2022-08-10T09:41:04.953Z,100688.00
2022-08-10T09:43:43.294Z,100523.91
2022-08-10T09:46:16.135Z,100526.34
2022-08-10T09:48:47.399Z,100588.22
2022-08-10T09:54:22.944Z,100648.47
2022-08-10T09:57:17.808Z,100728.19
2022-08-10T10:00:01.386Z,100768.69
2022-08-10T10:02:36.799Z,100699.25
2022-08-10T10:05:09.113Z,100756.66
2022-08-10T10:07:40.168Z,100483.88
2022-08-10T10:10:13.582Z,100603.97
2022-08-10T10:12:46.442Z,100659.69
2022-08-10T10:15:24.929Z,100724.53
2022-08-10T10:18:19.731Z,100712.66
2022-08-10T10:20:54.350Z,100640.06
2022-08-10T10:23:27.737Z,100448.63
2022-08-10T10:26:04.931Z,100633.16
2022-08-10T10:29:19.720Z,100674.53
2022-08-10T10:31:31.871Z,100474.59
2022-08-10T10:36:42.754Z,100701.78
2022-08-10T10:39:10.812Z,100693.38
2022-08-10T10:41:56.250Z,100683.94
2022-08-10T10:44:41.988Z,100693.38
2022-08-10T10:47:29.624Z,100683.25
2022-08-10T10:50:04.053Z,100682.25
2022-08-10T10:52:40.120Z,100685.56
2022-08-10T10:55:14.400Z,100690.59
2022-08-10T10:57:58.797Z,100682.13
2022-08-10T11:00:31.372Z,100680.31
2022-08-10T11:03:10.684Z,100646.91
2022-08-10T11:05:55.495Z,100679.13
2022-08-10T11:08:28.677Z,100658.56
2022-08-10T11:11:02.003Z,100658.94
2022-08-10T11:14:25.316Z,100657.56
2022-08-10T11:16:26.878Z,100660.69
2022-08-10T11:19:00.197Z,100659.00
2022-08-10T11:21:41.277Z,100653.56
2022-08-10T11:24:47.943Z,100657.50
2022-08-10T11:27:03.648Z,100658.03
2022-08-10T11:29:34.762Z,100649.94
2022-08-10T11:32:04.728Z,100653.41
2022-08-10T11:34:49.033Z,100617.31
2022-08-10T11:37:29.124Z,100646.59
2022-08-10T11:40:19.327Z,100648.38
2022-08-10T11:42:51.285Z,100631.88
2022-08-10T11:45:22.808Z,100638.09
2022-08-10T11:47:52.714Z,100627.81
2022-08-10T11:50:24.051Z,100627.75
2022-08-10T11:52:58.097Z,100624.72
2022-08-10T11:55:26.997Z,100628.56
2022-08-10T11:57:58.510Z,100622.59
2022-08-10T12:00:32.468Z,100621.34
2022-08-10T12:03:03.160Z,100613.78
2022-08-10T12:05:54.511Z,100620.44
2022-08-10T12:10:02.211Z,100615.00
2022-08-10T12:11:23.743Z,100611.66
2022-08-10T12:14:19.682Z,100613.00
2022-08-10T12:16:46.566Z,100621.78
2022-08-10T12:19:16.927Z,100610.09
2022-08-10T12:21:46.914Z,100548.13
2022-08-10T12:24:20.561Z,100607.63
2022-08-10T12:26:53.375Z,100601.13
2022-08-10T12:29:27.441Z,100610.50
2022-08-10T12:32:00.519Z,100606.81
2022-08-10T12:34:31.399Z,100612.13
2022-08-10T12:37:05.751Z,100601.69
2022-08-10T12:39:36.611Z,100591.41
2022-08-10T12:42:06.626Z,100589.78
2022-08-10T12:44:41.496Z,100591.84
2022-08-10T12:47:17.845Z,100561.59
2022-08-10T12:50:30.910Z,100579.03
2022-08-10T12:52:41.104Z,100575.22
2022-08-10T12:55:09.318Z,100561.13
2022-08-10T12:57:37.399Z,100546.66
2022-08-10T13:00:06.923Z,100568.78
2022-08-10T13:02:49.081Z,100554.13
2022-08-10T13:05:17.332Z,100554.59
2022-08-10T13:08:24.783Z,100548.63
2022-08-10T13:10:34.424Z,100543.81
2022-08-10T13:13:02.336Z,100544.13
2022-08-10T13:15:50.114Z,100535.81
2022-08-10T13:18:27.214Z,100533.22
2022-08-10T13:20:56.589Z,100537.56
2022-08-10T13:23:26.959Z,100537.28
2022-08-10T13:25:56.228Z,100540.16
2022-08-10T13:28:36.603Z,100537.00
2022-08-10T13:31:08.466Z,100537.00
2022-08-10T13:34:41.094Z,100516.22
2022-08-10T13:36:35.729Z,100531.09
2022-08-10T13:39:03.631Z,100538.97
2022-08-10T13:41:33.584Z,100530.69
2022-08-10T13:44:01.710Z,100526.22
2022-08-10T13:46:29.639Z,100525.97
2022-08-10T13:48:59.248Z,100523.69
2022-08-10T13:51:53.973Z,100515.16
2022-08-10T13:54:19.796Z,100515.41
2022-08-10T13:56:48.539Z,100512.00
2022-08-10T13:59:16.642Z,100513.00
2022-08-10T14:01:48.394Z,100520.44
2022-08-10T14:04:18.871Z,100499.13
2022-08-10T14:06:51.449Z,100519.94
2022-08-10T14:09:26.998Z,100504.50
2022-08-10T14:11:55.071Z,100508.56
2022-08-10T14:14:22.968Z,100505.41
2022-08-10T14:16:50.880Z,100502.41
2022-08-10T14:19:21.016Z,100512.00
2022-08-10T14:21:49.943Z,100509.56
2022-08-10T14:24:21.852Z,100501.00
2022-08-10T14:26:50.008Z,100493.88
2022-08-10T14:29:19.097Z,100491.56
2022-08-10T14:32:01.854Z,100491.28
2022-08-10T14:36:08.398Z,100484.66
2022-08-10T14:37:23.893Z,100478.53
2022-08-10T14:39:53.698Z,100480.53
2022-08-10T14:42:27.757Z,100449.59
2022-08-10T14:44:58.272Z,100482.56
2022-08-10T14:47:51.592Z,100506.31
2022-08-10T14:50:32.509Z,100486.03
2022-08-10T14:53:01.407Z,100474.47
2022-08-10T14:55:31.020Z,100474.75
2022-08-10T14:58:21.270Z,100479.34
2022-08-10T15:00:49.177Z,100460.31
2022-08-10T15:03:59.444Z,100461.34
2022-08-10T15:06:17.208Z,100461.59
2022-08-10T15:08:47.020Z,100471.75
2022-08-10T15:12:15.160Z,100442.03
2022-08-10T15:14:15.237Z,100467.22
2022-08-10T15:16:53.567Z,100466.50
2022-08-10T15:20:01.183Z,100461.03
2022-08-10T15:22:35.750Z,100461.03
2022-08-10T15:25:04.892Z,100456.19
2022-08-10T15:27:53.522Z,100443.78
2022-08-10T15:30:30.562Z,100450.75
2022-08-10T15:33:20.882Z,100445.06
2022-08-10T15:36:23.677Z,100442.19
2022-08-10T15:38:58.978Z,100439.06
2022-08-10T15:41:57.704Z,100422.50
2022-08-10T15:44:24.418Z,100441.50
2022-08-10T15:46:54.973Z,100438.94
2022-08-10T15:49:26.760Z,100443.91
2022-08-10T15:51:58.483Z,100443.50
2022-08-10T15:54:34.413Z,100448.63
2022-08-10T15:57:03.766Z,100450.22
2022-08-10T15:59:33.092Z,100444.81
2022-08-10T16:02:13.111Z,100446.34
2022-08-10T16:04:48.691Z,100443.22
2022-08-10T16:07:19.304Z,100444.78
2022-08-10T16:10:23.312Z,100424.50
2022-08-10T16:12:42.104Z,100428.81
2022-08-10T16:15:12.789Z,100431.94
2022-08-10T16:17:55.558Z,100428.94
2022-08-10T16:20:33.970Z,100433.91
2022-08-10T16:23:22.598Z,100432.91
2022-08-10T16:25:58.138Z,100430.22
2022-08-10T16:28:31.457Z,100433.63
2022-08-10T16:30:59.735Z,100419.16
2022-08-10T16:33:54.287Z,100420.97
2022-08-10T16:36:18.571Z,100425.28
2022-08-10T16:38:48.022Z,100384.69
2022-08-10T16:42:01.975Z,100420.94
2022-08-10T16:44:06.023Z,100427.66
2022-08-10T16:46:34.166Z,100424.06
2022-08-10T16:49:02.063Z,100418.75
2022-08-10T16:51:30.047Z,100417.19
2022-08-10T16:53:57.959Z,100428.59
2022-08-10T16:56:29.708Z,100416.22
2022-08-10T16:58:57.955Z,100426.88
2022-08-10T17:01:27.054Z,100410.22
2022-08-10T17:04:06.254Z,100438.72
2022-08-10T17:06:39.087Z,100313.91
2022-08-10T17:09:08.376Z,100439.66
2022-08-10T17:11:50.781Z,100422.66
2022-08-10T17:14:18.776Z,100405.38
2022-08-10T17:16:47.171Z,100319.28
2022-08-10T17:19:15.721Z,100414.53
2022-08-10T17:21:56.733Z,100079.66
2022-08-10T17:24:28.012Z,100067.31
2022-08-10T17:26:59.229Z,100152.41
2022-08-10T17:29:58.252Z,100355.03
2022-08-10T17:32:25.631Z,100345.31
2022-08-10T17:34:57.203Z,100158.34
2022-08-10T17:37:27.460Z,100312.44
2022-08-10T17:39:58.153Z,100309.91
2022-08-10T17:42:27.615Z,100344.31
2022-08-10T17:44:55.784Z,100375.88
2022-08-10T17:47:27.444Z,100349.00
2022-08-10T17:49:57.339Z,100087.16
2022-08-10T17:52:27.440Z,100432.47
2022-08-10T17:54:56.513Z,100414.66
2022-08-10T17:57:24.803Z,100354.03
2022-08-10T17:59:54.332Z,100195.59
2022-08-10T18:02:24.328Z,99980.88
2022-08-10T18:04:53.588Z,100249.06
2022-08-10T18:07:23.590Z,100391.84
2022-08-10T18:09:52.994Z,100376.41
2022-08-10T18:12:32.501Z,100446.34
2022-08-10T18:15:08.484Z,100321.19
2022-08-10T18:17:41.092Z,100469.97
2022-08-10T18:20:11.037Z,100288.97
2022-08-10T18:22:43.759Z,100047.53
2022-08-10T18:25:18.263Z,100515.13
2022-08-10T18:28:04.057Z,100146.47
2022-08-10T18:30:36.529Z,100457.41
2022-08-10T18:33:05.293Z,100336.31
2022-08-10T18:35:34.299Z,100168.22
2022-08-10T18:38:03.216Z,100270.66
2022-08-10T18:40:35.585Z,100364.94
2022-08-10T18:43:08.550Z,100323.56
2022-08-10T18:45:55.362Z,100155.81
2022-08-10T18:48:25.064Z,100053.91
2022-08-10T18:50:54.488Z,100303.78
2022-08-10T18:53:26.656Z,100235.69
2022-08-10T18:56:09.106Z,100473.84
2022-08-10T18:58:52.582Z,100510.25
2022-08-10T19:01:42.183Z,100384.97
2022-08-10T19:04:18.948Z,100350.31
2022-08-10T19:07:04.961Z,100391.75
2022-08-10T19:09:48.331Z,100219.09
2022-08-10T19:12:33.180Z,100237.31
2022-08-10T19:15:05.970Z,100345.22
2022-08-10T19:18:03.820Z,100254.19
2022-08-10T19:20:33.665Z,100429.69
2022-08-10T19:23:15.247Z,100454.00
2022-08-10T19:26:17.111Z,100425.81
2022-08-10T19:28:39.329Z,100313.78
2022-08-10T19:31:11.612Z,100455.47
2022-08-10T19:33:52.951Z,100352.50
2022-08-10T19:36:44.807Z,100133.38
2022-08-10T19:39:18.640Z,100320.88
2022-08-10T19:41:54.232Z,100473.47
2022-08-10T19:44:26.979Z,100398.66
2022-08-10T19:46:57.273Z,100430.38
2022-08-10T19:49:32.485Z,100319.75
2022-08-10T19:52:11.811Z,100408.16
2022-08-10T19:54:44.463Z,100316.13
2022-08-10T19:57:13.911Z,100341.72
2022-08-10T20:00:02.062Z,100225.63
2022-08-10T20:02:41.344Z,100485.72
2022-08-10T20:05:13.093Z,100338.88
2022-08-10T20:07:44.276Z,100236.75
2022-08-10T20:10:14.560Z,100234.47
2022-08-10T20:12:45.693Z,100381.47
2022-08-10T20:15:22.707Z,100271.56
2022-08-10T20:17:56.316Z,100220.00
2022-08-10T20:20:31.772Z,100265.06
2022-08-10T20:23:05.090Z,100281.56
2022-08-10T20:25:33.078Z,100332.44
2022-08-10T20:28:05.266Z,100364.63
2022-08-10T20:30:34.343Z,100513.13
2022-08-10T20:33:09.449Z,100349.69
2022-08-10T20:35:47.534Z,100188.00
2022-08-10T20:38:18.547Z,100306.97
2022-08-10T20:40:57.232Z,100462.72
2022-08-10T20:43:27.492Z,100464.63
2022-08-10T20:46:08.519Z,100497.25
2022-08-10T20:48:39.420Z,100471.66
2022-08-10T20:51:10.311Z,100360.91
2022-08-10T20:53:43.603Z,100083.44
2022-08-10T20:56:16.145Z,100424.06
2022-08-10T20:59:09.175Z,100309.41
2022-08-10T21:02:06.749Z,100351.78
2022-08-10T21:04:47.947Z,100503.81
2022-08-10T21:07:57.765Z,100400.28
2022-08-10T21:10:19.788Z,100359.69
2022-08-10T21:12:57.332Z,100387.16
2022-08-10T21:15:29.736Z,100295.56
2022-08-10T21:18:10.232Z,100226.84
2022-08-10T21:20:47.131Z,100474.00
2022-08-10T21:23:17.013Z,100263.41
2022-08-10T21:25:47.806Z,100517.41
2022-08-10T21:28:37.735Z,100550.75
2022-08-10T21:31:16.146Z,100240.97
2022-08-10T21:34:00.387Z,100427.56
2022-08-10T21:36:30.614Z,100229.75
2022-08-10T21:39:09.901Z,100372.66
2022-08-10T21:42:00.276Z,100447.78
2022-08-10T21:44:53.121Z,100283.28
2022-08-10T21:48:06.876Z,100349.25
2022-08-10T21:50:56.102Z,100438.44
2022-08-10T21:53:45.191Z,100474.84
2022-08-10T21:56:37.007Z,100106.72
2022-08-10T21:59:24.247Z,100105.75
2022-08-10T22:02:11.021Z,100290.06
2022-08-10T22:04:57.004Z,100409.13
2022-08-10T22:07:42.562Z,100294.97
2022-08-10T22:10:28.990Z,100465.16
2022-08-10T22:13:17.901Z,100108.16
2022-08-10T22:16:11.002Z,100218.72
2022-08-10T22:19:01.449Z,100510.66
2022-08-10T22:21:55.959Z,100469.50
2022-08-10T22:24:45.658Z,100343.94
2022-08-10T22:27:46.381Z,100401.81
2022-08-10T22:30:35.944Z,100471.56
2022-08-10T22:33:29.545Z,100270.63
2022-08-10T22:36:26.823Z,100214.09
2022-08-10T22:40:05.614Z,100537.31
2022-08-10T22:42:58.239Z,100026.84
2022-08-10T22:45:42.767Z,100351.00
2022-08-10T22:48:28.226Z,100341.63
2022-08-10T22:50:57.443Z,100131.97
2022-08-10T22:53:49.728Z,100495.44
2022-08-10T22:56:37.698Z,100461.72
2022-08-10T22:59:06.233Z,100350.28
2022-08-10T23:04:03.411Z,100472.16
2022-08-10T23:06:31.352Z,100453.94
2022-08-10T23:09:01.226Z,100456.53
2022-08-10T23:11:32.297Z,100458.50
2022-08-10T23:14:02.249Z,100443.81
2022-08-10T23:16:48.857Z,100458.75
2022-08-10T23:19:18.955Z,100420.03
2022-08-10T23:22:03.712Z,100460.94
2022-08-10T23:24:36.286Z,100463.69
2022-08-10T23:27:10.305Z,100459.41
2022-08-10T23:29:44.718Z,100456.81
2022-08-10T23:32:30.904Z,100464.13
2022-08-10T23:36:30.567Z,100462.66
2022-08-10T23:37:49.959Z,100450.47
2022-08-10T23:40:18.961Z,100460.38
2022-08-10T23:42:48.863Z,100458.81
2022-08-10T23:45:18.346Z,100458.97
2022-08-10T23:47:47.264Z,100457.56
2022-08-10T23:50:17.955Z,100437.69
2022-08-10T23:52:51.243Z,100459.53
2022-08-10T23:55:23.192Z,100443.38
2022-08-10T23:57:54.172Z,100406.31
